Time;durP1;ratioP1;P1;durP2;ratioP2;P2;SDS_P1;SDS_P2;PMS_P1;PMS_P2;Temp;Humidity;BMP_temperature;BMP_pressure;BME280_temperature;BME280_humidity;BME280_pressure;Samples;Min_cycle;Max_cycle;Signal;HPM_P1;HPM_P2
2024/01/31 00:02:04;;;;;;;8.90;6.77;;;9.60;99.90;;;;;;4960796;28;20190;-89
2024/01/31 00:04:30;;;;;;;8.73;6.53;;;9.50;99.90;;;;;;4982870;28;20213;-89
2024/01/31 00:06:56;;;;;;;7.77;6.43;;;9.50;99.90;;;;;;4997451;28;20215;-89
2024/01/31 00:09:21;;;;;;;10.50;7.57;;;9.00;99.90;;;;;;4995587;28;20165;-89
2024/01/31 00:11:47;;;;;;;7.73;6.93;;;9.50;99.90;;;;;;4992871;28;20177;-89
2024/01/31 00:14:15;;;;;;;8.53;7.43;;;9.20;99.90;;;;;;4979215;28;20820;-89
2024/01/31 00:16:42;;;;;;;8.50;6.68;;;9.30;99.90;;;;;;4965273;28;20284;-89
2024/01/31 00:19:07;;;;;;;9.15;8.20;;;9.20;99.90;;;;;;4969632;28;20182;-89
2024/01/31 00:21:33;;;;;;;8.60;7.70;;;9.10;99.90;;;;;;4968846;28;20236;-89
2024/01/31 00:23:59;;;;;;;8.33;6.50;;;9.30;99.90;;;;;;4968100;28;20246;-89
2024/01/31 00:26:24;;;;;;;7.93;6.20;;;9.30;99.90;;;;;;4986978;28;20293;-89
2024/01/31 00:28:50;;;;;;;7.87;7.07;;;9.50;99.90;;;;;;4992255;28;20194;-89
2024/01/31 00:31:15;;;;;;;10.50;7.20;;;9.00;99.90;;;;;;4985369;28;20208;-89
2024/01/31 00:33:41;;;;;;;8.87;6.90;;;9.70;99.90;;;;;;4969076;28;20199;-89
2024/01/31 00:36:08;;;;;;;7.33;6.63;;;9.60;99.90;;;;;;4964496;28;20205;-89
2024/01/31 00:38:35;;;;;;;10.52;7.32;;;9.70;99.90;;;;;;4961868;28;21025;-89
2024/01/31 00:41:01;;;;;;;8.73;6.90;;;9.60;99.90;;;;;;4974148;28;20280;-89
2024/01/31 00:43:26;;;;;;;7.60;6.80;;;9.70;99.90;;;;;;4961724;28;20187;-89
2024/01/31 00:45:52;;;;;;;8.70;7.07;;;9.60;99.90;;;;;;4959284;28;20207;-89
2024/01/31 00:48:17;;;;;;;9.70;7.97;;;10.10;99.90;;;;;;4988639;28;20185;-89
2024/01/31 00:50:43;;;;;;;9.90;8.03;;;9.90;99.90;;;;;;4979351;28;20194;-89
2024/01/31 00:53:08;;;;;;;8.97;6.60;;;9.50;99.90;;;;;;4989637;28;20244;-89
2024/01/31 00:55:34;;;;;;;9.93;7.30;;;9.70;99.90;;;;;;4975291;28;20716;-88
2024/01/31 00:58:00;;;;;;;7.10;6.40;;;9.80;99.90;;;;;;4965648;28;20186;-88
2024/01/31 01:00:26;;;;;;;7.22;6.55;;;9.60;99.90;;;;;;4965056;28;20209;-89
2024/01/31 01:02:52;;;;;;;7.85;6.30;;;9.60;99.90;;;;;;4971992;28;20197;-89
2024/01/31 01:05:17;;;;;;;8.80;7.47;;;9.90;99.90;;;;;;4989496;28;20222;-89
2024/01/31 01:07:45;;;;;;;9.90;6.80;;;9.60;99.90;;;;;;4988584;28;20229;-89
2024/01/31 01:10:13;;;;;;;7.40;6.65;;;9.60;99.90;;;;;;4969767;28;20182;-89
2024/01/31 01:12:38;;;;;;;7.32;6.63;;;9.90;99.90;;;;;;4981106;28;20183;-89
2024/01/31 01:15:06;;;;;;;8.30;7.47;;;9.80;99.90;;;;;;4970082;28;20205;-89
2024/01/31 01:17:32;;;;;;;9.15;6.75;;;9.30;99.90;;;;;;4981840;28;20183;-88
2024/01/31 01:19:57;;;;;;;8.57;7.23;;;9.30;99.90;;;;;;4962616;28;20296;-89
2024/01/31 01:22:23;;;;;;;8.73;7.43;;;9.70;99.90;;;;;;4966858;28;20217;-89
2024/01/31 01:24:49;;;;;;;11.10;6.93;;;9.60;99.90;;;;;;4986328;28;20225;-89
2024/01/31 01:27:14;;;;;;;9.43;6.30;;;10.00;99.90;;;;;;4968883;28;20206;-89
2024/01/31 01:29:40;;;;;;;6.97;6.37;;;9.30;99.90;;;;;;4967203;28;20220;-89
2024/01/31 01:32:05;;;;;;;8.73;6.57;;;9.40;99.90;;;;;;4976447;28;20278;-89
2024/01/31 01:34:31;;;;;;;7.17;6.47;;;9.70;99.90;;;;;;4979386;28;20212;-89
2024/01/31 01:36:56;;;;;;;7.40;6.70;;;9.90;99.90;;;;;;4971174;28;20647;-89
2024/01/31 01:39:22;;;;;;;7.43;6.60;;;9.60;99.90;;;;;;4971700;28;20194;-88
2024/01/31 01:41:48;;;;;;;10.20;6.97;;;9.70;99.90;;;;;;4991070;28;20206;-88
2024/01/31 01:44:15;;;;;;;7.47;6.40;;;9.60;99.90;;;;;;4986515;28;20210;-88
2024/01/31 01:46:43;;;;;;;7.13;6.43;;;10.00;99.90;;;;;;4963000;28;20209;-89
2024/01/31 01:49:12;;;;;;;8.18;6.13;;;9.90;99.90;;;;;;4966010;28;20273;-89
2024/01/31 01:51:38;;;;;;;7.72;6.72;;;9.90;99.90;;;;;;4986683;28;20182;-89
2024/01/31 01:54:04;;;;;;;8.38;6.97;;;9.70;99.90;;;;;;4965139;28;20179;-89
2024/01/31 01:56:30;;;;;;;7.60;6.80;;;9.80;99.90;;;;;;4961367;28;20584;-89
2024/01/31 01:58:56;;;;;;;6.68;6.07;;;10.20;99.90;;;;;;4986620;28;20190;-88
2024/01/31 02:01:24;;;;;;;8.63;6.43;;;9.80;99.90;;;;;;4969472;28;20209;-89
2024/01/31 02:03:54;;;;;;;6.53;5.65;;;10.20;99.90;;;;;;4966469;28;20230;-88
2024/01/31 02:06:20;;;;;;;8.48;6.57;;;10.00;99.90;;;;;;4971764;28;20214;-89
2024/01/31 02:08:45;;;;;;;6.60;5.47;;;9.90;99.90;;;;;;4959556;28;20192;-89
2024/01/31 02:11:11;;;;;;;7.17;6.37;;;9.70;99.90;;;;;;4965505;28;20654;-89
2024/01/31 02:13:36;;;;;;;6.33;5.73;;;10.30;99.90;;;;;;4976487;28;20179;-87
2024/01/31 02:16:02;;;;;;;12.60;6.90;;;10.40;99.90;;;;;;4971134;28;20291;-87
2024/01/31 02:18:28;;;;;;;7.27;6.57;;;10.00;99.90;;;;;;4969007;28;20297;-87
2024/01/31 02:20:54;;;;;;;6.70;6.10;;;10.50;99.90;;;;;;4976178;28;20209;-87
2024/01/31 02:23:20;;;;;;;7.80;7.00;;;10.40;99.90;;;;;;4954744;28;20562;-87
2024/01/31 02:25:46;;;;;;;7.65;6.80;;;10.10;99.90;;;;;;4968634;28;20215;-87
2024/01/31 02:28:12;;;;;;;7.60;6.15;;;10.00;99.90;;;;;;4964020;28;20210;-87
2024/01/31 02:30:37;;;;;;;7.20;6.50;;;9.90;99.90;;;;;;4963751;28;20193;-88
2024/01/31 02:33:03;;;;;;;6.57;5.57;;;9.90;99.90;;;;;;4964953;28;20261;-88
2024/01/31 02:35:32;;;;;;;6.87;5.90;;;9.90;99.90;;;;;;4968362;28;20217;-89
2024/01/31 02:37:57;;;;;;;7.88;6.95;;;10.00;99.90;;;;;;4968514;28;20228;-89
2024/01/31 02:40:23;;;;;;;7.40;6.70;;;10.20;99.90;;;;;;4967584;28;20182;-89
2024/01/31 02:42:49;;;;;;;10.07;8.10;;;9.70;99.90;;;;;;4983342;28;20186;-87
2024/01/31 02:45:14;;;;;;;8.43;6.57;;;10.20;99.90;;;;;;4986121;28;20206;-87
2024/01/31 02:47:40;;;;;;;7.77;6.07;;;10.00;99.90;;;;;;4964688;28;20286;-88
2024/01/31 02:50:06;;;;;;;9.63;7.53;;;9.60;99.90;;;;;;4965824;28;20216;-88
2024/01/31 02:52:31;;;;;;;8.13;7.33;;;9.70;99.90;;;;;;4967648;28;20264;-87
2024/01/31 02:54:58;;;;;;;7.30;6.57;;;9.70;99.90;;;;;;4967212;28;20213;-88
2024/01/31 02:57:24;;;;;;;7.47;6.78;;;9.80;99.90;;;;;;4982324;28;20555;-87
2024/01/31 02:59:49;;;;;;;7.53;6.83;;;9.80;99.90;;;;;;4971442;28;20195;-88
2024/01/31 03:02:17;;;;;;;8.70;6.47;;;10.20;99.90;;;;;;4973886;28;20445;-88
2024/01/31 03:04:43;;;;;;;7.20;6.47;;;9.90;99.90;;;;;;4965209;28;20213;-88
2024/01/31 03:07:10;;;;;;;7.15;6.18;;;9.80;99.90;;;;;;4968135;28;20701;-88
2024/01/31 03:09:36;;;;;;;7.07;6.47;;;9.90;99.90;;;;;;4965297;28;20189;-87
2024/01/31 03:12:04;;;;;;;8.33;5.90;;;10.00;99.90;;;;;;4970321;28;20179;-88
2024/01/31 03:14:30;;;;;;;8.00;6.28;;;9.90;99.90;;;;;;4963179;28;20776;-87
2024/01/31 03:16:56;;;;;;;8.50;6.70;;;9.60;99.90;;;;;;4965519;28;20186;-87
2024/01/31 03:19:21;;;;;;;9.80;7.00;;;9.90;99.90;;;;;;4967110;28;20213;-88
2024/01/31 03:21:47;;;;;;;7.73;6.80;;;10.30;99.90;;;;;;4987512;28;20175;-88
2024/01/31 03:24:12;;;;;;;5.93;5.37;;;9.80;99.90;;;;;;4988432;28;20182;-87
2024/01/31 03:26:37;;;;;;;6.90;6.20;;;9.80;99.90;;;;;;4992255;28;20251;-87
2024/01/31 03:29:03;;;;;;;8.07;6.57;;;9.70;99.90;;;;;;4968962;28;20190;-87
2024/01/31 03:31:28;;;;;;;6.90;6.00;;;10.30;99.90;;;;;;4969617;28;20195;-88
2024/01/31 03:33:54;;;;;;;7.50;6.80;;;10.10;99.90;;;;;;4970215;28;20197;-88
2024/01/31 03:36:20;;;;;;;7.30;6.50;;;9.90;99.90;;;;;;4981775;28;20210;-87
2024/01/31 03:38:46;;;;;;;9.13;6.50;;;9.70;99.90;;;;;;4968384;28;20445;-88
2024/01/31 03:41:11;;;;;;;6.07;5.47;;;10.00;99.90;;;;;;4947248;28;20197;-88
2024/01/31 03:43:37;;;;;;;7.43;5.80;;;10.00;99.90;;;;;;4963952;28;20194;-88
2024/01/31 03:46:06;;;;;;;6.67;5.97;;;10.20;99.90;;;;;;4959011;28;20214;-87
2024/01/31 03:48:31;;;;;;;6.90;6.20;;;10.00;99.90;;;;;;5002795;28;20191;-88
2024/01/31 03:50:58;;;;;;;8.67;6.87;;;10.00;99.90;;;;;;4962151;28;20191;-87
2024/01/31 03:53:25;;;;;;;8.00;6.80;;;9.90;99.90;;;;;;4968894;28;20720;-88
2024/01/31 03:55:50;;;;;;;8.90;6.80;;;10.10;99.90;;;;;;4965752;28;20218;-88
2024/01/31 03:58:16;;;;;;;6.23;5.67;;;10.20;99.90;;;;;;4965568;28;20185;-87
2024/01/31 04:00:42;;;;;;;7.00;5.90;;;10.10;99.90;;;;;;4981395;28;20195;-88
2024/01/31 04:03:07;;;;;;;7.83;6.43;;;10.40;99.90;;;;;;4975218;28;20215;-88
2024/01/31 04:05:33;;;;;;;7.20;6.50;;;10.00;99.90;;;;;;4974392;28;20457;-88
2024/01/31 04:07:58;;;;;;;9.20;7.20;;;10.40;99.90;;;;;;4968161;28;20241;-88
2024/01/31 04:10:24;;;;;;;7.20;6.50;;;10.40;99.90;;;;;;4968738;28;20194;-88
2024/01/31 04:12:50;;;;;;;10.20;6.77;;;9.90;99.90;;;;;;4959561;28;20197;-88
2024/01/31 04:15:16;;;;;;;7.10;6.40;;;10.30;99.90;;;;;;4960035;28;20229;-88
2024/01/31 04:17:42;;;;;;;7.28;6.57;;;9.80;99.90;;;;;;4961551;28;20199;-88
2024/01/31 04:20:08;;;;;;;8.00;6.30;;;10.30;99.90;;;;;;4967700;28;20195;-88
2024/01/31 04:22:34;;;;;;;6.85;5.63;;;10.10;99.90;;;;;;4964760;28;20194;-88
2024/01/31 04:24:59;;;;;;;6.60;6.00;;;10.00;99.90;;;;;;4966673;28;20249;-88
2024/01/31 04:27:25;;;;;;;7.10;6.40;;;10.10;99.90;;;;;;4956026;28;20551;-88
2024/01/31 04:29:52;;;;;;;6.63;6.03;;;10.20;99.90;;;;;;4966730;28;20620;-88
2024/01/31 04:32:17;;;;;;;7.20;6.50;;;10.30;99.90;;;;;;4974041;28;20186;-88
2024/01/31 04:34:43;;;;;;;10.43;7.20;;;10.20;99.90;;;;;;4964206;28;20265;-88
2024/01/31 04:37:08;;;;;;;6.90;6.20;;;10.30;99.90;;;;;;4967089;28;20242;-87
2024/01/31 04:39:35;;;;;;;7.10;6.33;;;9.70;99.90;;;;;;4963935;28;20193;-88
2024/01/31 04:42:01;;;;;;;6.75;5.90;;;10.00;99.90;;;;;;4980559;28;20187;-88
2024/01/31 04:44:27;;;;;;;8.23;6.30;;;9.80;99.90;;;;;;4983480;28;20190;-88
2024/01/31 04:46:53;;;;;;;8.70;5.90;;;9.70;99.90;;;;;;4971875;28;20533;-88
2024/01/31 04:49:18;;;;;;;6.27;5.67;;;10.10;99.90;;;;;;4984440;28;20413;-88
2024/01/31 04:51:44;;;;;;;6.87;5.83;;;10.40;99.90;;;;;;4974515;28;20565;-88
2024/01/31 04:54:09;;;;;;;6.77;6.07;;;10.50;99.90;;;;;;4966944;28;20190;-88
2024/01/31 04:56:35;;;;;;;6.23;5.63;;;9.90;99.90;;;;;;4966763;28;20193;-88
2024/01/31 04:59:01;;;;;;;6.78;5.63;;;10.10;99.90;;;;;;4980997;28;20201;-88
2024/01/31 05:01:28;;;;;;;6.82;6.07;;;10.00;99.90;;;;;;4969926;28;20197;-88
2024/01/31 05:03:53;;;;;;;8.18;7.10;;;10.30;99.90;;;;;;4970996;28;20191;-88
2024/01/31 05:06:19;;;;;;;6.83;6.10;;;10.60;99.90;;;;;;4979240;28;20242;-88
2024/01/31 05:08:44;;;;;;;7.57;6.30;;;10.20;99.90;;;;;;4965759;28;20263;-88
2024/01/31 05:11:13;;;;;;;7.87;6.20;;;10.30;99.90;;;;;;4966804;28;20183;-88
2024/01/31 05:13:39;;;;;;;7.53;6.72;;;10.50;99.90;;;;;;4968444;28;20275;-88
2024/01/31 05:16:08;;;;;;;9.33;8.23;;;10.30;99.90;;;;;;4964676;28;20203;-88
2024/01/31 05:18:34;;;;;;;6.78;6.18;;;9.80;99.90;;;;;;4975437;28;20817;-88
2024/01/31 05:21:01;;;;;;;8.27;6.40;;;10.00;99.90;;;;;;4992730;28;20185;-88
2024/01/31 05:23:26;;;;;;;8.00;6.55;;;9.70;99.90;;;;;;4986420;28;20490;-88
2024/01/31 05:25:52;;;;;;;7.53;6.80;;;10.60;99.90;;;;;;4967736;28;20203;-87
2024/01/31 05:28:17;;;;;;;10.03;7.87;;;10.20;99.90;;;;;;4967140;28;20219;-88
2024/01/31 05:30:43;;;;;;;7.80;7.00;;;10.20;99.90;;;;;;4976411;28;20243;-88
2024/01/31 05:33:08;;;;;;;9.53;7.30;;;9.70;99.90;;;;;;4985653;28;20183;-88
2024/01/31 05:35:36;;;;;;;7.97;7.17;;;10.50;99.90;;;;;;4983000;28;20215;-88
2024/01/31 05:38:02;;;;;;;7.85;7.05;;;10.00;99.90;;;;;;4971059;28;20194;-88
2024/01/31 05:40:29;;;;;;;10.63;7.50;;;10.30;99.90;;;;;;4976307;28;20183;-88
2024/01/31 05:42:54;;;;;;;6.88;6.18;;;10.20;99.90;;;;;;4978719;28;20192;-87
2024/01/31 05:45:20;;;;;;;7.20;6.17;;;10.20;99.90;;;;;;4974194;28;20205;-84
2024/01/31 05:47:45;;;;;;;8.43;6.70;;;10.70;99.90;;;;;;4969125;28;20211;-86
2024/01/31 05:50:11;;;;;;;7.60;6.90;;;10.60;99.90;;;;;;4981838;28;20206;-87
2024/01/31 05:52:36;;;;;;;6.63;5.70;;;10.90;99.90;;;;;;4969080;28;20652;-86
2024/01/31 05:55:02;;;;;;;8.63;7.33;;;11.00;99.90;;;;;;4986681;28;20206;-86
2024/01/31 05:57:28;;;;;;;8.70;7.10;;;10.10;99.90;;;;;;4985702;28;20194;-86
2024/01/31 05:59:53;;;;;;;7.47;6.77;;;10.20;99.90;;;;;;4973637;28;20644;-85
2024/01/31 06:02:19;;;;;;;8.77;6.80;;;10.00;99.90;;;;;;4974852;28;20651;-85
2024/01/31 06:04:45;;;;;;;8.60;7.80;;;10.00;99.90;;;;;;4973868;28;20299;-85
2024/01/31 06:07:12;;;;;;;8.33;6.80;;;10.20;99.90;;;;;;4959134;28;20270;-85
2024/01/31 06:09:38;;;;;;;7.28;6.15;;;9.90;99.90;;;;;;4956424;28;20178;-84
2024/01/31 06:12:04;;;;;;;7.07;5.93;;;10.00;99.90;;;;;;4985961;28;20183;-85
2024/01/31 06:14:31;;;;;;;9.55;6.85;;;10.00;99.90;;;;;;4968241;28;20302;-85
2024/01/31 06:16:57;;;;;;;7.57;6.53;;;10.00;99.90;;;;;;4970995;28;20188;-86
2024/01/31 06:19:22;;;;;;;7.03;6.33;;;10.30;99.90;;;;;;4985835;28;20541;-85
2024/01/31 06:21:48;;;;;;;8.53;6.60;;;10.00;99.90;;;;;;4966345;28;20285;-86
2024/01/31 06:24:13;;;;;;;9.13;6.67;;;9.50;99.90;;;;;;4972725;28;20962;-86
2024/01/31 06:26:40;;;;;;;8.70;6.67;;;10.30;99.90;;;;;;4968191;28;20300;-86
2024/01/31 06:29:06;;;;;;;10.23;7.95;;;10.30;99.90;;;;;;4966981;28;20329;-86
2024/01/31 06:31:35;;;;;;;6.80;6.20;;;10.60;99.90;;;;;;4981828;28;20199;-86
2024/01/31 06:34:01;;;;;;;9.77;8.43;;;10.60;99.90;;;;;;4985795;28;20182;-86
2024/01/31 06:36:26;;;;;;;11.03;9.73;;;10.40;99.90;;;;;;4983727;28;20209;-86
2024/01/31 06:38:53;;;;;;;10.77;9.67;;;9.90;99.90;;;;;;4980841;28;20190;-90
2024/01/31 06:41:19;;;;;;;12.45;10.65;;;9.90;99.90;;;;;;4969342;28;20183;-87
2024/01/31 06:43:45;;;;;;;15.00;11.03;;;9.80;99.90;;;;;;4969205;28;20192;-87
2024/01/31 06:46:10;;;;;;;11.80;10.13;;;9.90;99.90;;;;;;4965285;28;20713;-86
2024/01/31 06:48:37;;;;;;;12.03;10.70;;;9.70;99.90;;;;;;4971253;28;20213;-86
2024/01/31 06:51:03;;;;;;;12.13;10.55;;;10.10;99.90;;;;;;4968028;28;20190;-85
2024/01/31 06:53:29;;;;;;;12.10;10.90;;;10.10;99.90;;;;;;4963327;28;20251;-86
2024/01/31 06:55:55;;;;;;;16.15;11.38;;;10.30;99.90;;;;;;4965132;28;20207;-86
2024/01/31 06:58:21;;;;;;;13.68;10.38;;;10.30;99.90;;;;;;4962235;28;20671;-88
2024/01/31 07:00:47;;;;;;;11.17;10.07;;;10.60;99.90;;;;;;4964858;28;20202;-86
2024/01/31 07:03:12;;;;;;;13.20;11.77;;;10.10;99.90;;;;;;4973041;28;20454;-86
2024/01/31 07:05:38;;;;;;;17.30;11.27;;;10.00;99.90;;;;;;4980684;28;20225;-86
2024/01/31 07:08:03;;;;;;;13.50;11.43;;;10.30;99.90;;;;;;4962992;28;20200;-84
2024/01/31 07:10:29;;;;;;;13.13;11.60;;;10.20;99.90;;;;;;4968888;28;20192;-85
2024/01/31 07:12:54;;;;;;;13.73;11.27;;;10.10;99.90;;;;;;4968495;28;20195;-85
2024/01/31 07:15:20;;;;;;;10.80;9.70;;;10.50;99.90;;;;;;4965672;28;20260;-85
2024/01/31 07:17:46;;;;;;;13.17;10.40;;;10.50;99.90;;;;;;4962894;28;20198;-84
2024/01/31 07:20:12;;;;;;;12.63;10.60;;;10.40;99.90;;;;;;4970396;28;20517;-85
2024/01/31 07:22:37;;;;;;;11.73;10.63;;;10.40;99.90;;;;;;4970174;28;20200;-84
2024/01/31 07:25:03;;;;;;;15.83;9.50;;;10.20;99.90;;;;;;4964517;28;20233;-85
2024/01/31 07:27:29;;;;;;;10.82;9.13;;;10.40;99.90;;;;;;4966236;28;20209;-85
2024/01/31 07:29:54;;;;;;;11.83;9.90;;;10.60;99.90;;;;;;4965490;28;20187;-85
2024/01/31 07:32:20;;;;;;;11.30;10.03;;;10.40;99.90;;;;;;4980103;28;20198;-84
2024/01/31 07:34:45;;;;;;;11.67;10.50;;;10.50;99.90;;;;;;4963421;28;20307;-85
2024/01/31 07:37:11;;;;;;;12.40;10.40;;;10.50;99.90;;;;;;4970137;28;20195;-85
2024/01/31 07:39:36;;;;;;;12.33;10.27;;;11.00;99.90;;;;;;4966199;28;20290;-87
2024/01/31 07:42:02;;;;;;;11.47;9.00;;;10.50;99.90;;;;;;4969555;28;20192;-85
2024/01/31 07:44:27;;;;;;;13.53;10.00;;;10.80;99.90;;;;;;4965023;28;20242;-88
2024/01/31 07:46:53;;;;;;;11.13;9.00;;;10.60;99.90;;;;;;4972757;28;20571;-87
2024/01/31 07:49:19;;;;;;;10.80;9.23;;;11.10;99.90;;;;;;4960598;28;20213;-88
2024/01/31 07:51:44;;;;;;;12.33;9.20;;;10.80;99.90;;;;;;4973876;28;20276;-89
2024/01/31 07:54:10;;;;;;;11.57;10.20;;;10.50;99.90;;;;;;4963634;28;20194;-88
2024/01/31 07:56:36;;;;;;;11.47;10.27;;;10.50;99.90;;;;;;4966939;28;20458;-87
2024/01/31 07:59:03;;;;;;;10.33;9.13;;;12.20;99.90;;;;;;4956079;28;20477;-87
2024/01/31 08:01:28;;;;;;;10.05;9.05;;;11.00;99.90;;;;;;4966169;28;20633;-87
2024/01/31 08:03:54;;;;;;;17.60;15.70;;;11.00;99.90;;;;;;4957508;28;20196;-88
2024/01/31 08:06:20;;;;;;;12.90;10.40;;;10.50;99.90;;;;;;4976539;28;20219;-87
2024/01/31 08:08:45;;;;;;;16.00;11.60;;;10.90;99.90;;;;;;4966427;28;20444;-88
2024/01/31 08:11:14;;;;;;;13.90;11.77;;;10.30;99.90;;;;;;4972946;28;20219;-82
2024/01/31 08:13:39;;;;;;;12.30;11.02;;;10.90;99.90;;;;;;4975603;28;20277;-82
2024/01/31 08:16:12;;;;;;;12.67;11.00;;;10.50;99.90;;;;;;4975706;28;20242;-82
2024/01/31 08:18:38;;;;;;;14.00;11.70;;;10.60;99.90;;;;;;4971251;28;20557;-82
2024/01/31 08:21:05;;;;;;;11.20;10.10;;;10.40;99.90;;;;;;4973289;28;20186;-83
2024/01/31 08:23:30;;;;;;;15.02;12.10;;;10.40;99.90;;;;;;4979110;28;20191;-83
2024/01/31 08:25:56;;;;;;;14.03;12.50;;;10.70;99.90;;;;;;4975761;28;20213;-82
2024/01/31 08:28:21;;;;;;;14.67;10.80;;;10.90;99.90;;;;;;4976056;28;21038;-88
2024/01/31 08:30:47;;;;;;;12.13;10.80;;;11.00;99.90;;;;;;4990459;28;20239;-88
2024/01/31 08:33:12;;;;;;;13.13;11.23;;;11.30;99.90;;;;;;4964533;28;21788;-88
2024/01/31 08:35:38;;;;;;;15.30;11.87;;;10.90;99.90;;;;;;4968308;28;20752;-90
2024/01/31 08:38:04;;;;;;;12.03;10.83;;;10.80;99.90;;;;;;4964001;28;20195;-88
2024/01/31 08:40:29;;;;;;;13.60;12.00;;;10.60;99.90;;;;;;4965771;28;20281;-88
2024/01/31 08:42:58;;;;;;;13.90;10.87;;;11.00;99.90;;;;;;4971767;28;20264;-88
2024/01/31 08:45:24;;;;;;;16.90;11.30;;;10.40;99.90;;;;;;4973035;28;20223;-87
2024/01/31 08:47:50;;;;;;;14.35;11.52;;;10.80;99.90;;;;;;4948984;28;20279;-89
2024/01/31 08:50:15;;;;;;;12.20;10.97;;;10.70;99.90;;;;;;4967973;28;20266;-89
2024/01/31 08:52:41;;;;;;;15.23;11.53;;;10.80;99.90;;;;;;4972869;28;20193;-89
2024/01/31 08:55:07;;;;;;;14.07;12.57;;;10.50;99.90;;;;;;4972046;28;20310;-90
2024/01/31 08:57:32;;;;;;;14.55;12.23;;;10.40;99.90;;;;;;4973501;28;20191;-90
2024/01/31 08:59:58;;;;;;;18.67;12.93;;;10.90;99.90;;;;;;4977465;28;20205;-88
2024/01/31 09:02:23;;;;;;;16.37;13.07;;;10.60;99.90;;;;;;4981250;28;20245;-87
2024/01/31 09:04:49;;;;;;;15.80;12.67;;;10.70;99.90;;;;;;4978854;28;20231;-87
2024/01/31 09:07:15;;;;;;;14.63;12.40;;;11.20;99.90;;;;;;4977685;28;20211;-86
2024/01/31 09:09:40;;;;;;;15.67;13.70;;;10.60;99.90;;;;;;4977771;28;20269;-85
2024/01/31 09:12:06;;;;;;;16.90;14.47;;;11.10;99.90;;;;;;4979681;28;20190;-86
2024/01/31 09:14:35;;;;;;;15.27;12.85;;;10.70;99.90;;;;;;4982518;28;20230;-86
2024/01/31 09:17:01;;;;;;;16.30;13.68;;;11.10;99.90;;;;;;4962117;28;20328;-86
2024/01/31 09:19:26;;;;;;;16.50;13.20;;;11.20;99.90;;;;;;4985251;28;20198;-85
2024/01/31 09:21:52;;;;;;;14.70;13.20;;;11.40;99.90;;;;;;4981828;28;20184;-90
2024/01/31 09:24:17;;;;;;;17.63;12.77;;;11.50;99.90;;;;;;4978434;28;20291;-90
2024/01/31 09:26:43;;;;;;;16.40;13.00;;;11.50;99.90;;;;;;4975648;28;20200;-85
2024/01/31 09:29:08;;;;;;;15.20;12.90;;;10.90;99.90;;;;;;4980216;28;20181;-86
2024/01/31 09:31:34;;;;;;;16.30;13.37;;;11.40;99.90;;;;;;4981099;28;20183;-86
2024/01/31 09:34:00;;;;;;;17.87;12.97;;;12.80;99.90;;;;;;4973567;28;20254;-85
2024/01/31 09:36:26;;;;;;;14.77;13.13;;;11.60;99.90;;;;;;4994940;28;20205;-86
2024/01/31 09:38:51;;;;;;;19.33;13.98;;;12.10;99.90;;;;;;4981716;28;20196;-87
2024/01/31 09:41:17;;;;;;;15.70;13.97;;;12.00;99.90;;;;;;4985974;28;20196;-87
2024/01/31 09:43:44;;;;;;;14.17;12.67;;;11.60;99.90;;;;;;4987735;28;20211;-87
2024/01/31 09:46:10;;;;;;;18.50;14.70;;;12.10;99.90;;;;;;4968190;28;20216;-87
2024/01/31 09:48:37;;;;;;;15.10;13.57;;;11.30;99.90;;;;;;4971425;28;20291;-87
2024/01/31 09:51:03;;;;;;;15.77;13.77;;;11.90;99.90;;;;;;4967795;28;20440;-85
2024/01/31 09:53:33;;;;;;;16.27;13.30;;;11.90;99.90;;;;;;4967161;28;20264;-85
2024/01/31 09:55:59;;;;;;;15.27;12.95;;;11.80;99.90;;;;;;4969474;28;20910;-85
2024/01/31 09:58:25;;;;;;;15.13;13.52;;;11.90;99.90;;;;;;4970027;28;20260;-84
2024/01/31 10:00:52;;;;;;;14.33;12.87;;;12.00;99.90;;;;;;4969427;28;20881;-86
2024/01/31 10:03:18;;;;;;;16.38;14.68;;;12.20;99.90;;;;;;4968598;28;20474;-89
2024/01/31 10:05:44;;;;;;;16.83;12.83;;;11.60;99.90;;;;;;4960217;28;20211;-88
2024/01/31 10:08:10;;;;;;;15.00;13.15;;;11.60;99.90;;;;;;4968057;28;20612;-87
2024/01/31 10:10:36;;;;;;;16.23;13.17;;;12.00;99.90;;;;;;4984818;28;20177;-87
2024/01/31 10:13:03;;;;;;;18.08;14.07;;;11.90;99.90;;;;;;4967083;28;20195;-87
2024/01/31 10:15:29;;;;;;;21.02;14.20;;;11.80;99.90;;;;;;4969564;28;20561;-86
2024/01/31 10:17:54;;;;;;;16.20;14.60;;;11.90;99.90;;;;;;4970120;28;20693;-87
2024/01/31 10:20:20;;;;;;;17.87;14.57;;;11.60;99.90;;;;;;4968986;28;20207;-85
2024/01/31 10:22:46;;;;;;;18.27;16.42;;;11.90;99.90;;;;;;4976987;28;20213;-86
2024/01/31 10:25:16;;;;;;;17.90;14.67;;;11.40;99.90;;;;;;4964265;28;20223;-86
2024/01/31 10:27:44;;;;;;;19.35;15.52;;;11.60;99.90;;;;;;4969718;28;20242;-86
2024/01/31 10:30:11;;;;;;;17.67;15.82;;;11.20;99.90;;;;;;4963135;28;20196;-85
2024/01/31 10:32:41;;;;;;;22.05;15.00;;;11.30;99.90;;;;;;4958503;28;20280;-86
2024/01/31 10:35:07;;;;;;;25.45;15.25;;;12.00;99.90;;;;;;4962966;28;20235;-87
2024/01/31 10:37:33;;;;;;;16.90;14.30;;;11.60;99.90;;;;;;4963263;28;20190;-86
2024/01/31 10:40:00;;;;;;;20.58;15.27;;;11.30;99.90;;;;;;4965275;28;20191;-85
2024/01/31 10:42:26;;;;;;;16.60;14.82;;;11.60;99.90;;;;;;4963032;28;20211;-86
2024/01/31 10:44:53;;;;;;;18.30;14.80;;;12.00;99.90;;;;;;4951693;28;20205;-86
2024/01/31 10:47:18;;;;;;;18.90;14.25;;;12.00;99.90;;;;;;4983771;28;20196;-86
2024/01/31 10:49:44;;;;;;;16.80;14.87;;;11.60;99.90;;;;;;4973379;28;20177;-86
2024/01/31 10:52:14;;;;;;;15.80;14.30;;;11.90;99.90;;;;;;4983623;28;20177;-86
2024/01/31 10:54:46;;;;;;;20.63;15.60;;;12.20;99.90;;;;;;4979688;28;20355;-85
2024/01/31 10:57:13;;;;;;;16.45;14.65;;;12.30;99.90;;;;;;4969543;28;20196;-85
2024/01/31 10:59:39;;;;;;;15.90;14.18;;;12.20;99.90;;;;;;4970460;28;20192;-85
2024/01/31 11:02:13;;;;;;;19.20;16.23;;;11.80;99.90;;;;;;4974860;28;20193;-85
2024/01/31 11:04:39;;;;;;;15.70;14.00;;;11.70;99.90;;;;;;4986941;28;20271;-84
2024/01/31 11:07:05;;;;;;;17.27;14.30;;;11.60;99.90;;;;;;4964108;28;20264;-89
2024/01/31 11:09:31;;;;;;;21.60;14.77;;;11.90;99.90;;;;;;4973564;28;20196;-89
2024/01/31 11:12:11;;;;;;;16.70;14.95;;;12.80;99.90;;;;;;4972154;28;20311;-89
2024/01/31 11:14:38;;;;;;;18.33;14.75;;;12.20;99.90;;;;;;4959160;28;20212;-89
2024/01/31 11:17:22;;;;;;;16.60;13.98;;;12.10;99.90;;;;;;4966715;28;20184;-89
2024/01/31 11:19:59;;;;;;;22.60;15.48;;;12.10;99.90;;;;;;4964905;28;20225;-89
2024/01/31 11:22:24;;;;;;;18.23;16.30;;;12.20;99.90;;;;;;4964367;28;20191;-89
2024/01/31 11:24:53;;;;;;;19.47;15.50;;;12.20;99.90;;;;;;4963278;28;20227;-90
2024/01/31 11:27:19;;;;;;;19.08;15.38;;;12.30;99.90;;;;;;4964191;28;20235;-90
2024/01/31 11:29:48;;;;;;;18.52;14.48;;;12.90;99.90;;;;;;4968465;28;20222;-90
2024/01/31 11:32:15;;;;;;;18.35;14.60;;;12.90;99.90;;;;;;4974372;28;20188;-89
2024/01/31 11:34:41;;;;;;;17.73;15.77;;;12.40;99.90;;;;;;4992304;28;20219;-89
2024/01/31 11:37:07;;;;;;;20.33;14.68;;;12.30;99.90;;;;;;4983984;28;20205;-89
2024/01/31 11:39:33;;;;;;;21.13;15.90;;;12.70;99.90;;;;;;4990283;28;20593;-89
2024/01/31 11:41:59;;;;;;;18.40;15.60;;;12.80;99.90;;;;;;4970490;28;20194;-89
2024/01/31 11:44:25;;;;;;;18.13;15.15;;;12.80;99.90;;;;;;4962503;28;20511;-89
2024/01/31 11:46:51;;;;;;;17.00;15.13;;;13.10;99.90;;;;;;4956168;28;20208;-89
2024/01/31 11:49:17;;;;;;;19.48;15.30;;;11.80;99.90;;;;;;4973272;28;20194;-89
2024/01/31 11:51:43;;;;;;;19.55;15.85;;;13.90;99.90;;;;;;4960592;28;20739;-89
2024/01/31 11:54:09;;;;;;;18.87;15.23;;;13.10;99.90;;;;;;4986547;28;20192;-89
2024/01/31 11:56:36;;;;;;;16.48;14.30;;;13.20;99.90;;;;;;4966502;28;20213;-89
2024/01/31 11:59:03;;;;;;;17.25;15.02;;;11.90;99.90;;;;;;4982849;28;20647;-89
2024/01/31 12:01:30;;;;;;;16.67;14.88;;;13.70;99.90;;;;;;4981894;28;20173;-89
2024/01/31 12:03:57;;;;;;;17.20;14.70;;;13.40;99.90;;;;;;4986177;28;20172;-89
2024/01/31 12:06:24;;;;;;;17.38;14.45;;;12.30;99.90;;;;;;4985324;28;20212;-89
2024/01/31 12:08:51;;;;;;;17.97;15.70;;;12.40;99.90;;;;;;4973221;28;20196;-89
2024/01/31 12:11:17;;;;;;;17.30;15.57;;;12.30;99.90;;;;;;4969038;28;20180;-89
2024/01/31 12:13:46;;;;;;;18.10;16.20;;;13.70;99.90;;;;;;4970968;28;20221;-89
2024/01/31 12:16:12;;;;;;;16.45;14.75;;;12.30;99.90;;;;;;4966000;28;20311;-88
2024/01/31 12:18:40;;;;;;;17.85;15.52;;;13.20;99.90;;;;;;4978251;28;20180;-86
2024/01/31 12:21:06;;;;;;;18.02;15.25;;;13.10;99.90;;;;;;4988929;28;20186;-85
2024/01/31 12:23:32;;;;;;;17.77;14.80;;;12.20;99.90;;;;;;4989774;28;20251;-86
2024/01/31 12:25:58;;;;;;;16.67;14.90;;;12.10;99.90;;;;;;4978646;28;20216;-86
2024/01/31 12:28:27;;;;;;;16.33;14.65;;;12.60;99.90;;;;;;4987329;28;20887;-88
2024/01/31 12:30:53;;;;;;;16.83;14.57;;;12.80;99.90;;;;;;4981950;28;20188;-88
2024/01/31 12:33:20;;;;;;;15.97;14.40;;;12.90;99.90;;;;;;4969388;28;20189;-90
2024/01/31 12:35:46;;;;;;;17.92;14.32;;;14.20;99.90;;;;;;4949606;28;20330;-87